sensor_id;sensor_type;location;lat;lon;timestamp;P1;durP1;ratioP1;P2;durP2;ratioP2
9563;SDS011;4820;50.870;4.702;2022-12-19T00:01:18;15.53;;;11.07;;
9563;SDS011;4820;50.870;4.702;2022-12-19T00:03:46;16.10;;;11.33;;
9563;SDS011;4820;50.870;4.702;2022-12-19T00:06:17;16.83;;;11.40;;
9563;SDS011;4820;50.870;4.702;2022-12-19T00:08:45;15.00;;;10.77;;
9563;SDS011;4820;50.870;4.702;2022-12-19T00:11:12;16.20;;;11.00;;
9563;SDS011;4820;50.870;4.702;2022-12-19T00:13:39;16.53;;;10.87;;
9563;SDS011;4820;50.870;4.702;2022-12-19T00:16:07;13.00;;;10.20;;
9563;SDS011;4820;50.870;4.702;2022-12-19T00:18:37;15.43;;;10.93;;
9563;SDS011;4820;50.870;4.702;2022-12-19T00:21:04;15.63;;;10.27;;
9563;SDS011;4820;50.870;4.702;2022-12-19T00:23:31;15.95;;;10.13;;
9563;SDS011;4820;50.870;4.702;2022-12-19T00:28:53;12.40;;;9.70;;
9563;SDS011;4820;50.870;4.702;2022-12-19T00:31:21;13.25;;;10.00;;
9563;SDS011;4820;50.870;4.702;2022-12-19T00:33:47;14.65;;;9.85;;
9563;SDS011;4820;50.870;4.702;2022-12-19T00:36:14;12.27;;;9.70;;
9563;SDS011;4820;50.870;4.702;2022-12-19T00:38:42;11.50;;;9.30;;
9563;SDS011;4820;50.870;4.702;2022-12-19T00:41:10;12.70;;;9.77;;
9563;SDS011;4820;50.870;4.702;2022-12-19T00:43:47;13.17;;;9.47;;
9563;SDS011;4820;50.870;4.702;2022-12-19T00:46:20;12.17;;;9.20;;
9563;SDS011;4820;50.870;4.702;2022-12-19T00:48:46;13.93;;;9.90;;
9563;SDS011;4820;50.870;4.702;2022-12-19T00:51:13;13.23;;;9.20;;
9563;SDS011;4820;50.870;4.702;2022-12-19T00:53:40;14.38;;;10.30;;
9563;SDS011;4820;50.870;4.702;2022-12-19T00:56:09;13.75;;;9.88;;
9563;SDS011;4820;50.870;4.702;2022-12-19T00:58:39;14.13;;;9.90;;
9563;SDS011;4820;50.870;4.702;2022-12-19T01:01:25;13.40;;;9.25;;
9563;SDS011;4820;50.870;4.702;2022-12-19T01:03:57;14.63;;;10.05;;
9563;SDS011;4820;50.870;4.702;2022-12-19T01:06:23;15.73;;;9.20;;
9563;SDS011;4820;50.870;4.702;2022-12-19T01:08:50;14.15;;;10.40;;
9563;SDS011;4820;50.870;4.702;2022-12-19T01:11:16;12.48;;;9.50;;
9563;SDS011;4820;50.870;4.702;2022-12-19T01:13:41;14.10;;;9.70;;
9563;SDS011;4820;50.870;4.702;2022-12-19T01:16:11;12.90;;;9.50;;
9563;SDS011;4820;50.870;4.702;2022-12-19T01:18:37;12.52;;;9.40;;
9563;SDS011;4820;50.870;4.702;2022-12-19T01:21:04;12.48;;;9.95;;
9563;SDS011;4820;50.870;4.702;2022-12-19T01:23:32;11.52;;;8.98;;
9563;SDS011;4820;50.870;4.702;2022-12-19T01:25:58;13.07;;;9.80;;
9563;SDS011;4820;50.870;4.702;2022-12-19T01:28:24;13.60;;;9.07;;
9563;SDS011;4820;50.870;4.702;2022-12-19T01:30:50;12.75;;;9.02;;
9563;SDS011;4820;50.870;4.702;2022-12-19T01:33:16;14.77;;;9.98;;
9563;SDS011;4820;50.870;4.702;2022-12-19T01:35:45;12.70;;;9.50;;
9563;SDS011;4820;50.870;4.702;2022-12-19T01:38:15;11.93;;;9.45;;
9563;SDS011;4820;50.870;4.702;2022-12-19T01:40:49;13.60;;;9.45;;
9563;SDS011;4820;50.870;4.702;2022-12-19T01:43:16;13.60;;;9.60;;
9563;SDS011;4820;50.870;4.702;2022-12-19T01:45:42;12.48;;;9.10;;
9563;SDS011;4820;50.870;4.702;2022-12-19T01:53:17;11.93;;;9.30;;
9563;SDS011;4820;50.870;4.702;2022-12-19T01:55:44;13.17;;;8.50;;
9563;SDS011;4820;50.870;4.702;2022-12-19T01:58:10;12.32;;;9.05;;
9563;SDS011;4820;50.870;4.702;2022-12-19T02:00:38;13.07;;;9.35;;
9563;SDS011;4820;50.870;4.702;2022-12-19T02:03:14;12.57;;;8.77;;
9563;SDS011;4820;50.870;4.702;2022-12-19T02:05:54;12.23;;;8.27;;
9563;SDS011;4820;50.870;4.702;2022-12-19T02:08:22;11.13;;;8.77;;
9563;SDS011;4820;50.870;4.702;2022-12-19T02:10:49;10.15;;;8.27;;
9563;SDS011;4820;50.870;4.702;2022-12-19T02:13:15;10.90;;;8.05;;
9563;SDS011;4820;50.870;4.702;2022-12-19T02:18:23;11.73;;;8.90;;
9563;SDS011;4820;50.870;4.702;2022-12-19T02:21:14;10.98;;;7.78;;
9563;SDS011;4820;50.870;4.702;2022-12-19T02:24:01;11.25;;;8.13;;
9563;SDS011;4820;50.870;4.702;2022-12-19T02:30:01;10.20;;;7.65;;
9563;SDS011;4820;50.870;4.702;2022-12-19T02:38:05;12.45;;;8.52;;
9563;SDS011;4820;50.870;4.702;2022-12-19T02:40:41;11.23;;;8.57;;
9563;SDS011;4820;50.870;4.702;2022-12-19T02:43:14;11.13;;;8.13;;
9563;SDS011;4820;50.870;4.702;2022-12-19T02:45:42;11.93;;;7.82;;
9563;SDS011;4820;50.870;4.702;2022-12-19T02:48:09;11.40;;;7.55;;
9563;SDS011;4820;50.870;4.702;2022-12-19T02:50:38;9.85;;;8.07;;
9563;SDS011;4820;50.870;4.702;2022-12-19T02:53:12;10.95;;;8.02;;
9563;SDS011;4820;50.870;4.702;2022-12-19T02:55:42;10.85;;;7.90;;
9563;SDS011;4820;50.870;4.702;2022-12-19T03:01:09;10.63;;;8.18;;
9563;SDS011;4820;50.870;4.702;2022-12-19T03:06:34;10.93;;;8.68;;
9563;SDS011;4820;50.870;4.702;2022-12-19T03:09:14;10.32;;;8.48;;
9563;SDS011;4820;50.870;4.702;2022-12-19T03:11:43;11.13;;;8.30;;
9563;SDS011;4820;50.870;4.702;2022-12-19T03:14:14;11.45;;;8.63;;
9563;SDS011;4820;50.870;4.702;2022-12-19T03:16:43;11.00;;;8.65;;
9563;SDS011;4820;50.870;4.702;2022-12-19T03:19:10;9.38;;;8.32;;
9563;SDS011;4820;50.870;4.702;2022-12-19T03:21:45;11.48;;;8.07;;
9563;SDS011;4820;50.870;4.702;2022-12-19T03:24:12;11.35;;;8.75;;
9563;SDS011;4820;50.870;4.702;2022-12-19T03:26:52;10.82;;;8.30;;
9563;SDS011;4820;50.870;4.702;2022-12-19T03:29:40;9.82;;;8.27;;
9563;SDS011;4820;50.870;4.702;2022-12-19T03:32:11;11.23;;;8.35;;
9563;SDS011;4820;50.870;4.702;2022-12-19T03:37:08;10.25;;;8.05;;
9563;SDS011;4820;50.870;4.702;2022-12-19T03:39:38;10.57;;;8.00;;
9563;SDS011;4820;50.870;4.702;2022-12-19T03:42:06;12.13;;;7.65;;
9563;SDS011;4820;50.870;4.702;2022-12-19T03:44:53;10.07;;;7.85;;
9563;SDS011;4820;50.870;4.702;2022-12-19T03:47:22;10.55;;;7.97;;
9563;SDS011;4820;50.870;4.702;2022-12-19T03:49:55;10.05;;;8.57;;
9563;SDS011;4820;50.870;4.702;2022-12-19T03:52:34;10.40;;;8.00;;
9563;SDS011;4820;50.870;4.702;2022-12-19T03:58:05;10.88;;;8.15;;
9563;SDS011;4820;50.870;4.702;2022-12-19T04:00:38;9.40;;;7.45;;
9563;SDS011;4820;50.870;4.702;2022-12-19T04:03:07;10.55;;;7.75;;
9563;SDS011;4820;50.870;4.702;2022-12-19T04:05:35;9.48;;;7.20;;
9563;SDS011;4820;50.870;4.702;2022-12-19T04:08:04;9.13;;;7.20;;
9563;SDS011;4820;50.870;4.702;2022-12-19T04:10:33;12.27;;;7.10;;
9563;SDS011;4820;50.870;4.702;2022-12-19T04:13:08;10.02;;;7.22;;
9563;SDS011;4820;50.870;4.702;2022-12-19T04:18:14;7.78;;;6.80;;
9563;SDS011;4820;50.870;4.702;2022-12-19T04:20:43;10.00;;;7.00;;
9563;SDS011;4820;50.870;4.702;2022-12-19T04:23:16;7.32;;;6.30;;
9563;SDS011;4820;50.870;4.702;2022-12-19T04:25:47;7.97;;;6.35;;
9563;SDS011;4820;50.870;4.702;2022-12-19T04:28:29;8.32;;;6.63;;
9563;SDS011;4820;50.870;4.702;2022-12-19T04:31:04;8.50;;;7.15;;
9563;SDS011;4820;50.870;4.702;2022-12-19T04:33:31;7.78;;;6.22;;
9563;SDS011;4820;50.870;4.702;2022-12-19T04:35:57;7.30;;;5.72;;
9563;SDS011;4820;50.870;4.702;2022-12-19T04:38:23;7.28;;;5.50;;
9563;SDS011;4820;50.870;4.702;2022-12-19T04:40:50;6.97;;;5.72;;
9563;SDS011;4820;50.870;4.702;2022-12-19T04:43:16;7.10;;;5.75;;
9563;SDS011;4820;50.870;4.702;2022-12-19T04:45:41;7.22;;;6.47;;
9563;SDS011;4820;50.870;4.702;2022-12-19T04:48:09;6.60;;;5.50;;
9563;SDS011;4820;50.870;4.702;2022-12-19T04:50:35;8.35;;;5.82;;
9563;SDS011;4820;50.870;4.702;2022-12-19T04:53:01;7.07;;;5.50;;
9563;SDS011;4820;50.870;4.702;2022-12-19T04:55:27;6.65;;;5.35;;
9563;SDS011;4820;50.870;4.702;2022-12-19T04:57:53;7.00;;;5.70;;
9563;SDS011;4820;50.870;4.702;2022-12-19T05:00:18;6.35;;;5.35;;
9563;SDS011;4820;50.870;4.702;2022-12-19T05:02:44;7.38;;;5.80;;
9563;SDS011;4820;50.870;4.702;2022-12-19T05:05:11;6.22;;;5.30;;
9563;SDS011;4820;50.870;4.702;2022-12-19T05:07:36;6.32;;;5.53;;
9563;SDS011;4820;50.870;4.702;2022-12-19T05:10:02;7.30;;;5.68;;
9563;SDS011;4820;50.870;4.702;2022-12-19T05:12:28;6.07;;;5.47;;
9563;SDS011;4820;50.870;4.702;2022-12-19T05:14:54;6.70;;;5.50;;
9563;SDS011;4820;50.870;4.702;2022-12-19T05:17:20;6.00;;;5.40;;
9563;SDS011;4820;50.870;4.702;2022-12-19T05:19:45;5.97;;;5.32;;
9563;SDS011;4820;50.870;4.702;2022-12-19T05:22:11;6.32;;;5.10;;
9563;SDS011;4820;50.870;4.702;2022-12-19T05:24:37;6.65;;;5.78;;
9563;SDS011;4820;50.870;4.702;2022-12-19T05:27:02;7.45;;;5.32;;
9563;SDS011;4820;50.870;4.702;2022-12-19T05:29:28;6.53;;;5.63;;
9563;SDS011;4820;50.870;4.702;2022-12-19T05:31:54;5.90;;;5.30;;
9563;SDS011;4820;50.870;4.702;2022-12-19T05:34:19;5.90;;;5.30;;
9563;SDS011;4820;50.870;4.702;2022-12-19T05:36:45;7.72;;;5.32;;
9563;SDS011;4820;50.870;4.702;2022-12-19T05:39:11;6.88;;;5.10;;
9563;SDS011;4820;50.870;4.702;2022-12-19T05:41:36;5.38;;;4.88;;
9563;SDS011;4820;50.870;4.702;2022-12-19T05:44:02;6.05;;;4.63;;
9563;SDS011;4820;50.870;4.702;2022-12-19T05:46:28;7.05;;;5.07;;
9563;SDS011;4820;50.870;4.702;2022-12-19T05:48:54;5.20;;;4.70;;
9563;SDS011;4820;50.870;4.702;2022-12-19T05:51:19;6.00;;;5.35;;
9563;SDS011;4820;50.870;4.702;2022-12-19T05:53:46;6.13;;;4.82;;
9563;SDS011;4820;50.870;4.702;2022-12-19T05:56:13;6.60;;;4.78;;
9563;SDS011;4820;50.870;4.702;2022-12-19T05:58:41;8.13;;;4.35;;
9563;SDS011;4820;50.870;4.702;2022-12-19T06:01:09;6.30;;;4.72;;
9563;SDS011;4820;50.870;4.702;2022-12-19T06:03:36;6.80;;;4.90;;
9563;SDS011;4820;50.870;4.702;2022-12-19T06:06:06;4.97;;;4.47;;
9563;SDS011;4820;50.870;4.702;2022-12-19T06:08:33;6.10;;;4.65;;
9563;SDS011;4820;50.870;4.702;2022-12-19T06:11:01;5.53;;;4.50;;
9563;SDS011;4820;50.870;4.702;2022-12-19T06:13:28;6.53;;;4.65;;
9563;SDS011;4820;50.870;4.702;2022-12-19T06:16:04;5.93;;;4.80;;
9563;SDS011;4820;50.870;4.702;2022-12-19T06:18:40;4.85;;;4.32;;
9563;SDS011;4820;50.870;4.702;2022-12-19T06:21:09;4.75;;;3.97;;
9563;SDS011;4820;50.870;4.702;2022-12-19T06:23:37;4.72;;;4.25;;
9563;SDS011;4820;50.870;4.702;2022-12-19T06:26:03;5.70;;;4.30;;
9563;SDS011;4820;50.870;4.702;2022-12-19T06:28:30;6.65;;;4.57;;
9563;SDS011;4820;50.870;4.702;2022-12-19T06:30:57;7.95;;;4.88;;
9563;SDS011;4820;50.870;4.702;2022-12-19T06:33:24;5.93;;;4.22;;
9563;SDS011;4820;50.870;4.702;2022-12-19T06:36:08;4.82;;;4.30;;
9563;SDS011;4820;50.870;4.702;2022-12-19T06:38:40;5.63;;;4.32;;
9563;SDS011;4820;50.870;4.702;2022-12-19T06:41:05;5.18;;;4.40;;
9563;SDS011;4820;50.870;4.702;2022-12-19T06:43:51;5.03;;;4.03;;
9563;SDS011;4820;50.870;4.702;2022-12-19T06:46:17;6.18;;;4.22;;
9563;SDS011;4820;50.870;4.702;2022-12-19T06:48:43;4.30;;;3.88;;
9563;SDS011;4820;50.870;4.702;2022-12-19T06:51:08;5.38;;;4.15;;
9563;SDS011;4820;50.870;4.702;2022-12-19T06:53:34;5.43;;;4.15;;
9563;SDS011;4820;50.870;4.702;2022-12-19T06:56:00;5.68;;;4.32;;
9563;SDS011;4820;50.870;4.702;2022-12-19T06:58:26;4.72;;;3.85;;
9563;SDS011;4820;50.870;4.702;2022-12-19T07:00:52;5.32;;;4.28;;
9563;SDS011;4820;50.870;4.702;2022-12-19T07:03:19;6.00;;;4.57;;
9563;SDS011;4820;50.870;4.702;2022-12-19T07:05:48;5.25;;;4.10;;
9563;SDS011;4820;50.870;4.702;2022-12-19T07:08:13;6.43;;;4.57;;
9563;SDS011;4820;50.870;4.702;2022-12-19T07:10:39;4.65;;;4.25;;
9563;SDS011;4820;50.870;4.702;2022-12-19T07:13:04;6.60;;;4.10;;
9563;SDS011;4820;50.870;4.702;2022-12-19T07:15:30;4.97;;;3.92;;
9563;SDS011;4820;50.870;4.702;2022-12-19T07:17:59;6.28;;;4.30;;
9563;SDS011;4820;50.870;4.702;2022-12-19T07:20:26;7.28;;;4.88;;
9563;SDS011;4820;50.870;4.702;2022-12-19T07:22:53;7.53;;;4.63;;
9563;SDS011;4820;50.870;4.702;2022-12-19T07:25:18;4.57;;;4.10;;
9563;SDS011;4820;50.870;4.702;2022-12-19T07:27:44;5.38;;;3.95;;
9563;SDS011;4820;50.870;4.702;2022-12-19T07:30:11;6.05;;;4.57;;
9563;SDS011;4820;50.870;4.702;2022-12-19T07:32:37;5.20;;;4.70;;
9563;SDS011;4820;50.870;4.702;2022-12-19T07:35:04;4.53;;;4.03;;
9563;SDS011;4820;50.870;4.702;2022-12-19T07:37:31;6.13;;;4.53;;
9563;SDS011;4820;50.870;4.702;2022-12-19T07:39:57;4.88;;;4.18;;
9563;SDS011;4820;50.870;4.702;2022-12-19T07:42:23;5.25;;;4.30;;
9563;SDS011;4820;50.870;4.702;2022-12-19T07:44:48;6.10;;;4.35;;
9563;SDS011;4820;50.870;4.702;2022-12-19T07:47:14;4.72;;;3.97;;
9563;SDS011;4820;50.870;4.702;2022-12-19T07:49:39;5.32;;;3.97;;
9563;SDS011;4820;50.870;4.702;2022-12-19T07:52:05;5.38;;;3.80;;
9563;SDS011;4820;50.870;4.702;2022-12-19T07:54:31;5.65;;;3.97;;
9563;SDS011;4820;50.870;4.702;2022-12-19T07:56:57;6.03;;;4.40;;
9563;SDS011;4820;50.870;4.702;2022-12-19T07:59:22;5.90;;;4.03;;
9563;SDS011;4820;50.870;4.702;2022-12-19T08:01:48;4.40;;;3.70;;
9563;SDS011;4820;50.870;4.702;2022-12-19T08:04:15;4.90;;;3.97;;
9563;SDS011;4820;50.870;4.702;2022-12-19T08:06:40;4.95;;;3.80;;
9563;SDS011;4820;50.870;4.702;2022-12-19T08:09:06;4.60;;;3.72;;
9563;SDS011;4820;50.870;4.702;2022-12-19T08:11:32;4.03;;;3.63;;
9563;SDS011;4820;50.870;4.702;2022-12-19T08:13:58;4.80;;;3.80;;
9563;SDS011;4820;50.870;4.702;2022-12-19T08:16:24;4.20;;;3.63;;
9563;SDS011;4820;50.870;4.702;2022-12-19T08:18:51;5.03;;;3.70;;
9563;SDS011;4820;50.870;4.702;2022-12-19T08:21:18;4.72;;;3.80;;
9563;SDS011;4820;50.870;4.702;2022-12-19T08:23:44;6.35;;;4.35;;
9563;SDS011;4820;50.870;4.702;2022-12-19T08:26:13;4.45;;;3.90;;
9563;SDS011;4820;50.870;4.702;2022-12-19T08:28:40;5.70;;;3.97;;
9563;SDS011;4820;50.870;4.702;2022-12-19T08:31:07;5.00;;;4.07;;
9563;SDS011;4820;50.870;4.702;2022-12-19T08:33:38;5.50;;;4.15;;
9563;SDS011;4820;50.870;4.702;2022-12-19T08:36:04;7.18;;;4.43;;
9563;SDS011;4820;50.870;4.702;2022-12-19T08:38:32;6.90;;;3.72;;
9563;SDS011;4820;50.870;4.702;2022-12-19T08:40:58;4.75;;;3.85;;
9563;SDS011;4820;50.870;4.702;2022-12-19T08:43:24;5.88;;;4.03;;
9563;SDS011;4820;50.870;4.702;2022-12-19T08:45:51;5.65;;;3.97;;
9563;SDS011;4820;50.870;4.702;2022-12-19T08:48:16;5.18;;;3.63;;
9563;SDS011;4820;50.870;4.702;2022-12-19T08:50:52;5.38;;;4.03;;
9563;SDS011;4820;50.870;4.702;2022-12-19T08:53:21;7.72;;;4.47;;
9563;SDS011;4820;50.870;4.702;2022-12-19T08:55:52;4.10;;;3.55;;
9563;SDS011;4820;50.870;4.702;2022-12-19T08:58:25;4.78;;;3.55;;
9563;SDS011;4820;50.870;4.702;2022-12-19T09:00:52;3.95;;;3.50;;
9563;SDS011;4820;50.870;4.702;2022-12-19T09:03:19;5.70;;;3.47;;
9563;SDS011;4820;50.870;4.702;2022-12-19T09:05:45;3.80;;;3.40;;
9563;SDS011;4820;50.870;4.702;2022-12-19T09:08:10;4.03;;;3.38;;
9563;SDS011;4820;50.870;4.702;2022-12-19T09:10:36;5.35;;;3.30;;
9563;SDS011;4820;50.870;4.702;2022-12-19T09:13:04;4.00;;;3.60;;
9563;SDS011;4820;50.870;4.702;2022-12-19T09:15:30;3.50;;;3.20;;
9563;SDS011;4820;50.870;4.702;2022-12-19T09:17:56;8.25;;;3.30;;
9563;SDS011;4820;50.870;4.702;2022-12-19T09:20:22;3.55;;;2.97;;
9563;SDS011;4820;50.870;4.702;2022-12-19T09:22:49;3.83;;;3.08;;
9563;SDS011;4820;50.870;4.702;2022-12-19T09:25:15;5.13;;;3.22;;
9563;SDS011;4820;50.870;4.702;2022-12-19T09:27:40;4.70;;;3.47;;
9563;SDS011;4820;50.870;4.702;2022-12-19T09:30:06;5.28;;;3.30;;
9563;SDS011;4820;50.870;4.702;2022-12-19T09:32:32;4.63;;;3.40;;
9563;SDS011;4820;50.870;4.702;2022-12-19T09:34:58;3.75;;;3.25;;
9563;SDS011;4820;50.870;4.702;2022-12-19T09:37:24;3.60;;;3.25;;
9563;SDS011;4820;50.870;4.702;2022-12-19T09:39:49;5.25;;;3.20;;
9563;SDS011;4820;50.870;4.702;2022-12-19T09:47:22;3.55;;;2.95;;
9563;SDS011;4820;50.870;4.702;2022-12-19T09:49:56;3.63;;;3.17;;
9563;SDS011;4820;50.870;4.702;2022-12-19T09:52:31;3.33;;;3.03;;
9563;SDS011;4820;50.870;4.702;2022-12-19T09:57:48;4.82;;;3.35;;
9563;SDS011;4820;50.870;4.702;2022-12-19T10:00:21;3.03;;;2.72;;
9563;SDS011;4820;50.870;4.702;2022-12-19T10:03:02;4.95;;;2.92;;
9563;SDS011;4820;50.870;4.702;2022-12-19T10:05:41;4.25;;;3.10;;
9563;SDS011;4820;50.870;4.702;2022-12-19T10:18:56;3.88;;;3.28;;
9563;SDS011;4820;50.870;4.702;2022-12-19T10:24:20;7.90;;;3.55;;
9563;SDS011;4820;50.870;4.702;2022-12-19T10:30:15;3.40;;;3.10;;
9563;SDS011;4820;50.870;4.702;2022-12-19T10:35:20;4.13;;;3.20;;
9563;SDS011;4820;50.870;4.702;2022-12-19T10:45:27;5.22;;;2.60;;
9563;SDS011;4820;50.870;4.702;2022-12-19T10:47:58;4.95;;;2.70;;
9563;SDS011;4820;50.870;4.702;2022-12-19T10:50:25;3.85;;;2.72;;
9563;SDS011;4820;50.870;4.702;2022-12-19T10:55:32;3.72;;;2.40;;
9563;SDS011;4820;50.870;4.702;2022-12-19T10:58:20;3.85;;;2.53;;
9563;SDS011;4820;50.870;4.702;2022-12-19T11:03:22;3.60;;;2.38;;
9563;SDS011;4820;50.870;4.702;2022-12-19T11:05:52;3.42;;;2.58;;
9563;SDS011;4820;50.870;4.702;2022-12-19T11:08:20;3.55;;;2.70;;
9563;SDS011;4820;50.870;4.702;2022-12-19T11:15:59;3.30;;;2.95;;
9563;SDS011;4820;50.870;4.702;2022-12-19T11:18:34;3.47;;;2.40;;
9563;SDS011;4820;50.870;4.702;2022-12-19T11:23:45;3.60;;;2.70;;
9563;SDS011;4820;50.870;4.702;2022-12-19T11:29:27;5.65;;;2.42;;
9563;SDS011;4820;50.870;4.702;2022-12-19T11:32:01;3.22;;;2.53;;
9563;SDS011;4820;50.870;4.702;2022-12-19T11:34:28;2.72;;;2.30;;
9563;SDS011;4820;50.870;4.702;2022-12-19T11:40:06;3.50;;;2.42;;
9563;SDS011;4820;50.870;4.702;2022-12-19T11:42:49;3.47;;;2.70;;
9563;SDS011;4820;50.870;4.702;2022-12-19T11:56:16;4.80;;;2.30;;
9563;SDS011;4820;50.870;4.702;2022-12-19T11:58:47;3.45;;;2.72;;
9563;SDS011;4820;50.870;4.702;2022-12-19T12:04:36;3.05;;;2.42;;
9563;SDS011;4820;50.870;4.702;2022-12-19T12:06:54;3.20;;;2.42;;
9563;SDS011;4820;50.870;4.702;2022-12-19T12:17:49;3.38;;;2.38;;
9563;SDS011;4820;50.870;4.702;2022-12-19T12:23:34;3.33;;;2.17;;
9563;SDS011;4820;50.870;4.702;2022-12-19T12:45:19;3.00;;;2.30;;
9563;SDS011;4820;50.870;4.702;2022-12-19T12:47:52;2.83;;;2.13;;
9563;SDS011;4820;50.870;4.702;2022-12-19T12:50:18;2.67;;;2.13;;
9563;SDS011;4820;50.870;4.702;2022-12-19T12:52:47;6.65;;;2.60;;
9563;SDS011;4820;50.870;4.702;2022-12-19T13:01:09;2.45;;;2.00;;
9563;SDS011;4820;50.870;4.702;2022-12-19T13:03:54;5.15;;;2.25;;
9563;SDS011;4820;50.870;4.702;2022-12-19T13:06:37;2.78;;;2.13;;
9563;SDS011;4820;50.870;4.702;2022-12-19T13:11:39;3.30;;;2.17;;
9563;SDS011;4820;50.870;4.702;2022-12-19T13:17:02;3.15;;;2.47;;
9563;SDS011;4820;50.870;4.702;2022-12-19T13:19:29;5.15;;;2.40;;
9563;SDS011;4820;50.870;4.702;2022-12-19T13:24:39;3.28;;;2.60;;
9563;SDS011;4820;50.870;4.702;2022-12-19T13:43:18;2.25;;;2.05;;
9563;SDS011;4820;50.870;4.702;2022-12-19T13:49:14;3.70;;;2.20;;
9563;SDS011;4820;50.870;4.702;2022-12-19T13:51:53;2.33;;;2.10;;
9563;SDS011;4820;50.870;4.702;2022-12-19T13:54:27;2.28;;;1.90;;
9563;SDS011;4820;50.870;4.702;2022-12-19T13:56:58;3.00;;;2.33;;
9563;SDS011;4820;50.870;4.702;2022-12-19T13:59:26;3.22;;;2.10;;
9563;SDS011;4820;50.870;4.702;2022-12-19T14:02:04;3.00;;;2.08;;
9563;SDS011;4820;50.870;4.702;2022-12-19T14:04:32;4.68;;;2.10;;
9563;SDS011;4820;50.870;4.702;2022-12-19T14:09:39;2.60;;;2.20;;
9563;SDS011;4820;50.870;4.702;2022-12-19T14:12:13;2.47;;;2.00;;
9563;SDS011;4820;50.870;4.702;2022-12-19T14:15:19;3.58;;;2.38;;
9563;SDS011;4820;50.870;4.702;2022-12-19T14:17:47;3.45;;;2.25;;
9563;SDS011;4820;50.870;4.702;2022-12-19T14:20:19;2.13;;;1.92;;
9563;SDS011;4820;50.870;4.702;2022-12-19T14:22:46;3.67;;;2.28;;
9563;SDS011;4820;50.870;4.702;2022-12-19T14:25:12;3.95;;;2.20;;
9563;SDS011;4820;50.870;4.702;2022-12-19T14:27:40;2.38;;;1.95;;
9563;SDS011;4820;50.870;4.702;2022-12-19T14:30:22;2.92;;;2.30;;
9563;SDS011;4820;50.870;4.702;2022-12-19T14:32:51;3.17;;;1.98;;
9563;SDS011;4820;50.870;4.702;2022-12-19T14:35:23;2.60;;;2.00;;
9563;SDS011;4820;50.870;4.702;2022-12-19T14:37:59;3.10;;;2.20;;
9563;SDS011;4820;50.870;4.702;2022-12-19T14:40:27;3.30;;;2.40;;
9563;SDS011;4820;50.870;4.702;2022-12-19T14:43:03;4.28;;;2.10;;
9563;SDS011;4820;50.870;4.702;2022-12-19T14:48:48;2.92;;;2.03;;
9563;SDS011;4820;50.870;4.702;2022-12-19T14:54:17;2.40;;;2.05;;
9563;SDS011;4820;50.870;4.702;2022-12-19T15:04:33;3.10;;;2.17;;
9563;SDS011;4820;50.870;4.702;2022-12-19T15:07:05;3.47;;;2.38;;
9563;SDS011;4820;50.870;4.702;2022-12-19T15:12:15;3.33;;;2.03;;
9563;SDS011;4820;50.870;4.702;2022-12-19T15:15:14;3.55;;;2.30;;
9563;SDS011;4820;50.870;4.702;2022-12-19T15:17:44;4.45;;;2.33;;
9563;SDS011;4820;50.870;4.702;2022-12-19T15:20:11;2.72;;;2.40;;
9563;SDS011;4820;50.870;4.702;2022-12-19T15:22:37;3.88;;;2.30;;
9563;SDS011;4820;50.870;4.702;2022-12-19T15:25:03;4.13;;;2.47;;
9563;SDS011;4820;50.870;4.702;2022-12-19T15:27:29;3.40;;;2.42;;
9563;SDS011;4820;50.870;4.702;2022-12-19T15:29:55;2.33;;;2.08;;
9563;SDS011;4820;50.870;4.702;2022-12-19T15:32:23;2.55;;;2.13;;
9563;SDS011;4820;50.870;4.702;2022-12-19T15:34:48;3.28;;;2.30;;
9563;SDS011;4820;50.870;4.702;2022-12-19T15:37:15;4.53;;;2.38;;
9563;SDS011;4820;50.870;4.702;2022-12-19T15:39:42;3.45;;;2.63;;
9563;SDS011;4820;50.870;4.702;2022-12-19T15:42:16;3.03;;;2.40;;
9563;SDS011;4820;50.870;4.702;2022-12-19T15:44:45;2.85;;;2.20;;
9563;SDS011;4820;50.870;4.702;2022-12-19T15:47:22;3.90;;;2.88;;
9563;SDS011;4820;50.870;4.702;2022-12-19T15:49:55;4.68;;;2.47;;
9563;SDS011;4820;50.870;4.702;2022-12-19T15:52:22;4.10;;;2.40;;
9563;SDS011;4820;50.870;4.702;2022-12-19T15:54:49;4.75;;;2.65;;
9563;SDS011;4820;50.870;4.702;2022-12-19T15:57:17;2.55;;;2.15;;
9563;SDS011;4820;50.870;4.702;2022-12-19T15:59:44;4.82;;;2.50;;
9563;SDS011;4820;50.870;4.702;2022-12-19T16:02:17;3.17;;;2.30;;
9563;SDS011;4820;50.870;4.702;2022-12-19T16:04:45;3.35;;;2.40;;
9563;SDS011;4820;50.870;4.702;2022-12-19T16:07:13;3.58;;;2.40;;
9563;SDS011;4820;50.870;4.702;2022-12-19T16:09:40;3.00;;;2.60;;
9563;SDS011;4820;50.870;4.702;2022-12-19T16:12:09;3.55;;;2.47;;
9563;SDS011;4820;50.870;4.702;2022-12-19T16:14:40;2.75;;;2.45;;
9563;SDS011;4820;50.870;4.702;2022-12-19T16:17:09;3.67;;;2.58;;
9563;SDS011;4820;50.870;4.702;2022-12-19T16:19:40;2.92;;;2.38;;
9563;SDS011;4820;50.870;4.702;2022-12-19T16:22:15;3.15;;;2.40;;
9563;SDS011;4820;50.870;4.702;2022-12-19T16:24:48;4.20;;;2.50;;
9563;SDS011;4820;50.870;4.702;2022-12-19T16:27:23;3.60;;;2.53;;
9563;SDS011;4820;50.870;4.702;2022-12-19T16:29:53;3.60;;;2.25;;
9563;SDS011;4820;50.870;4.702;2022-12-19T16:32:20;4.25;;;2.63;;
9563;SDS011;4820;50.870;4.702;2022-12-19T16:34:48;3.55;;;2.50;;
9563;SDS011;4820;50.870;4.702;2022-12-19T16:37:14;5.28;;;2.58;;
9563;SDS011;4820;50.870;4.702;2022-12-19T16:39:40;2.83;;;2.38;;
9563;SDS011;4820;50.870;4.702;2022-12-19T16:42:13;3.65;;;2.58;;
9563;SDS011;4820;50.870;4.702;2022-12-19T16:44:43;3.55;;;2.80;;
9563;SDS011;4820;50.870;4.702;2022-12-19T16:47:11;4.47;;;2.60;;
9563;SDS011;4820;50.870;4.702;2022-12-19T16:49:38;3.72;;;2.80;;
9563;SDS011;4820;50.870;4.702;2022-12-19T16:52:04;3.47;;;2.88;;
9563;SDS011;4820;50.870;4.702;2022-12-19T16:54:30;2.80;;;2.55;;
9563;SDS011;4820;50.870;4.702;2022-12-19T16:56:55;2.92;;;2.40;;
9563;SDS011;4820;50.870;4.702;2022-12-19T16:59:24;4.53;;;2.83;;
9563;SDS011;4820;50.870;4.702;2022-12-19T17:01:54;2.85;;;2.40;;
9563;SDS011;4820;50.870;4.702;2022-12-19T17:04:21;3.17;;;2.50;;
9563;SDS011;4820;50.870;4.702;2022-12-19T17:06:48;3.78;;;2.70;;
9563;SDS011;4820;50.870;4.702;2022-12-19T17:09:19;2.72;;;2.40;;
9563;SDS011;4820;50.870;4.702;2022-12-19T17:11:47;4.05;;;2.50;;
9563;SDS011;4820;50.870;4.702;2022-12-19T17:14:18;3.97;;;2.47;;
9563;SDS011;4820;50.870;4.702;2022-12-19T17:16:48;3.88;;;2.28;;
9563;SDS011;4820;50.870;4.702;2022-12-19T17:19:22;2.83;;;2.60;;
9563;SDS011;4820;50.870;4.702;2022-12-19T17:21:52;2.50;;;2.30;;
9563;SDS011;4820;50.870;4.702;2022-12-19T17:24:18;2.42;;;2.15;;
9563;SDS011;4820;50.870;4.702;2022-12-19T17:26:45;3.15;;;2.40;;
9563;SDS011;4820;50.870;4.702;2022-12-19T17:29:12;2.92;;;2.33;;
9563;SDS011;4820;50.870;4.702;2022-12-19T17:31:38;4.68;;;3.22;;
9563;SDS011;4820;50.870;4.702;2022-12-19T17:34:15;2.97;;;2.45;;
9563;SDS011;4820;50.870;4.702;2022-12-19T17:36:45;4.18;;;2.80;;
9563;SDS011;4820;50.870;4.702;2022-12-19T17:41:43;3.35;;;2.60;;
9563;SDS011;4820;50.870;4.702;2022-12-19T17:44:09;3.53;;;2.47;;
9563;SDS011;4820;50.870;4.702;2022-12-19T17:46:36;4.70;;;2.80;;
9563;SDS011;4820;50.870;4.702;2022-12-19T17:49:02;3.97;;;2.60;;
9563;SDS011;4820;50.870;4.702;2022-12-19T17:51:28;4.95;;;2.40;;
9563;SDS011;4820;50.870;4.702;2022-12-19T17:53:53;3.47;;;2.58;;
9563;SDS011;4820;50.870;4.702;2022-12-19T17:56:20;3.88;;;2.58;;
9563;SDS011;4820;50.870;4.702;2022-12-19T17:58:46;3.97;;;3.03;;
9563;SDS011;4820;50.870;4.702;2022-12-19T18:01:19;4.28;;;2.63;;
9563;SDS011;4820;50.870;4.702;2022-12-19T18:03:48;4.15;;;2.75;;
9563;SDS011;4820;50.870;4.702;2022-12-19T18:06:15;4.80;;;2.70;;
9563;SDS011;4820;50.870;4.702;2022-12-19T18:08:40;4.10;;;2.67;;
9563;SDS011;4820;50.870;4.702;2022-12-19T18:11:10;4.55;;;2.83;;
9563;SDS011;4820;50.870;4.702;2022-12-19T18:13:42;3.53;;;2.60;;
9563;SDS011;4820;50.870;4.702;2022-12-19T18:16:08;3.63;;;2.70;;
9563;SDS011;4820;50.870;4.702;2022-12-19T18:18:38;4.15;;;2.70;;
9563;SDS011;4820;50.870;4.702;2022-12-19T18:21:04;4.07;;;2.60;;
9563;SDS011;4820;50.870;4.702;2022-12-19T18:23:30;3.47;;;2.67;;
9563;SDS011;4820;50.870;4.702;2022-12-19T18:25:56;4.45;;;2.83;;
9563;SDS011;4820;50.870;4.702;2022-12-19T18:28:21;4.00;;;3.00;;
9563;SDS011;4820;50.870;4.702;2022-12-19T18:30:47;3.75;;;2.70;;
9563;SDS011;4820;50.870;4.702;2022-12-19T18:33:15;3.20;;;2.90;;